Terminal Aerodrome Forecast
Issued by NWS Austin/San Antonio, TX

Home | Current Version | Previous Version | Text Only | Print | Product List | Glossary On
Versions: 1 2 3 4 5 6 7 8 9 10 11 12 13 14 15 16 17 18 19 20 21 22 23 24 25 26
000
FTUS44 KEWX 201125
TAFSAT
TAF
KSAT 201125Z 2012/2118 14010KT P6SM BKN015
     FM201700 14012KT P6SM SCT035 BKN050
      TEMPO 2021/2024 4SM TSRA BKN035CB
     FM210600 13005KT 4SM BR OVC025
     FM210900 13005KT 4SM BR OVC007
     FM211500 13005KT P6SM BKN025=

USA.gov is the U.S. government's official web portal to all federal, state and local government web resources and services.